createdAt,value
2022-08-07T00:00:53.202Z,63.88
2022-08-07T00:03:27.721Z,64.13
2022-08-07T00:06:05.262Z,64.10
2022-08-07T00:08:36.527Z,64.02
2022-08-07T00:11:19.950Z,64.32
2022-08-07T00:13:57.745Z,64.12
2022-08-07T00:16:28.014Z,64.60
2022-08-07T00:18:55.716Z,64.60
2022-08-07T00:21:57.261Z,64.48
2022-08-07T00:24:11.557Z,64.97
2022-08-07T00:26:58.836Z,65.07
2022-08-07T00:29:31.475Z,64.82
2022-08-07T00:32:00.073Z,65.06
2022-08-07T00:34:28.025Z,64.96
2022-08-07T00:36:57.480Z,65.15
2022-08-07T00:39:25.131Z,65.01
2022-08-07T00:42:01.846Z,64.78
2022-08-07T00:44:33.956Z,64.91
2022-08-07T00:47:02.746Z,65.08
2022-08-07T00:50:18.944Z,64.91
2022-08-07T00:52:19.963Z,65.23
2022-08-07T00:54:53.542Z,65.32
2022-08-07T00:57:26.258Z,65.31
2022-08-07T00:59:54.850Z,65.27
2022-08-07T01:02:28.772Z,65.24
2022-08-07T01:04:59.315Z,65.50
2022-08-07T01:07:29.671Z,65.35
2022-08-07T01:10:06.513Z,64.92
2022-08-07T01:12:53.474Z,64.94
2022-08-07T01:16:00.936Z,64.91
2022-08-07T01:18:17.088Z,64.94
2022-08-07T01:21:05.349Z,64.96
2022-08-07T01:23:46.689Z,64.80
2022-08-07T01:26:19.538Z,64.72
2022-08-07T01:28:51.412Z,65.01
2022-08-07T01:31:41.566Z,64.69
2022-08-07T01:34:14.454Z,65.28
2022-08-07T01:36:52.569Z,65.64
2022-08-07T01:39:40.469Z,65.36
2022-08-07T01:42:37.676Z,65.44
2022-08-07T01:45:18.301Z,65.48
2022-08-07T01:48:17.577Z,65.53
2022-08-07T01:50:43.279Z,65.71
2022-08-07T01:53:20.887Z,65.67
2022-08-07T01:55:58.929Z,65.56
2022-08-07T01:58:33.589Z,65.55
2022-08-07T02:01:58.989Z,65.51
2022-08-07T02:04:17.992Z,65.46
2022-08-07T02:06:54.270Z,65.45
2022-08-07T02:09:33.931Z,65.26
2022-08-07T02:12:18.010Z,65.28
2022-08-07T02:15:06.031Z,65.06
2022-08-07T02:17:40.264Z,65.11
2022-08-07T02:20:19.924Z,64.96
2022-08-07T02:22:59.908Z,64.17
2022-08-07T02:26:11.438Z,62.70
2022-08-07T02:28:24.520Z,61.73
2022-08-07T02:30:56.087Z,61.24
2022-08-07T02:33:42.074Z,61.18
2022-08-07T02:36:29.081Z,61.11
2022-08-07T02:39:16.205Z,61.03
2022-08-07T02:41:50.905Z,60.99
2022-08-07T02:44:27.760Z,61.36
2022-08-07T02:47:05.910Z,61.15
2022-08-07T02:49:58.517Z,61.22
2022-08-07T02:52:32.667Z,61.03
2022-08-07T02:55:27.673Z,60.51
2022-08-07T02:58:03.097Z,60.72
2022-08-07T03:00:35.285Z,60.31
2022-08-07T03:03:07.627Z,60.56
2022-08-07T03:05:44.691Z,59.85
2022-08-07T03:08:13.975Z,60.24
2022-08-07T03:10:47.265Z,59.66
2022-08-07T03:13:20.255Z,59.44
2022-08-07T03:15:56.463Z,57.49
2022-08-07T03:18:34.652Z,53.79
2022-08-07T03:21:08.614Z,50.76
2022-08-07T03:24:20.228Z,48.21
2022-08-07T03:26:33.738Z,46.17
2022-08-07T03:29:11.152Z,44.16
2022-08-07T03:31:50.037Z,42.56
2022-08-07T03:34:22.128Z,40.63
2022-08-07T03:37:00.234Z,39.31
2022-08-07T03:40:00.088Z,37.93
2022-08-07T03:42:33.625Z,36.66
2022-08-07T03:45:03.322Z,35.74
2022-08-07T03:47:48.286Z,34.49
2022-08-07T03:50:24.469Z,33.13
2022-08-07T03:52:57.655Z,32.03
2022-08-07T03:55:52.963Z,31.18
2022-08-07T03:59:05.452Z,30.97
2022-08-07T04:01:02.665Z,30.53
2022-08-07T04:03:49.659Z,29.75
2022-08-07T04:06:38.420Z,29.59
2022-08-07T04:09:16.009Z,29.84
2022-08-07T04:12:23.580Z,29.02
2022-08-07T04:14:43.887Z,28.23
2022-08-07T04:17:21.046Z,27.47
2022-08-07T04:19:54.362Z,26.88
2022-08-07T04:22:29.406Z,26.23
2022-08-07T04:25:02.094Z,25.47
2022-08-07T04:27:36.144Z,25.12
2022-08-07T04:30:35.633Z,24.57
2022-08-07T04:33:08.095Z,24.36
2022-08-07T04:35:39.848Z,23.66
2022-08-07T04:38:16.108Z,23.65
2022-08-07T04:40:51.795Z,22.87
2022-08-07T04:44:12.106Z,22.83
2022-08-07T04:46:53.950Z,22.76
2022-08-07T04:49:37.785Z,22.27
2022-08-07T04:52:27.453Z,22.25
2022-08-07T04:58:13.924Z,22.04
2022-08-07T04:59:15.799Z,21.88
2022-08-07T05:01:32.521Z,21.24
2022-08-07T05:04:08.313Z,21.06
2022-08-07T05:07:09.778Z,20.92
2022-08-07T05:10:08.011Z,20.42
2022-08-07T05:13:00.078Z,19.87
2022-08-07T05:15:42.718Z,19.86
2022-08-07T05:18:30.064Z,19.89
2022-08-07T05:21:04.718Z,19.67
2022-08-07T05:23:47.590Z,19.26
2022-08-07T05:26:23.916Z,18.88
2022-08-07T05:29:04.208Z,18.60
2022-08-07T05:31:38.701Z,18.96
2022-08-07T05:34:15.715Z,18.78
2022-08-07T05:36:52.895Z,19.49
2022-08-07T05:40:18.070Z,18.45
2022-08-07T05:42:34.384Z,18.59
2022-08-07T05:45:26.042Z,18.15
2022-08-07T05:48:03.871Z,17.77
2022-08-07T05:50:42.826Z,17.35
2022-08-07T05:54:13.343Z,17.82
2022-08-07T05:56:05.795Z,17.60
2022-08-07T05:58:39.379Z,18.57
2022-08-07T06:01:12.413Z,19.69
2022-08-07T06:03:56.690Z,20.91
2022-08-07T06:06:29.554Z,22.50
2022-08-07T06:08:58.450Z,23.25
2022-08-07T06:11:27.602Z,23.95
2022-08-07T06:14:13.031Z,25.44
2022-08-07T06:16:50.226Z,26.56
2022-08-07T06:19:57.685Z,27.83
2022-08-07T06:22:23.823Z,28.47
2022-08-07T06:25:04.959Z,29.36
2022-08-07T06:28:00.228Z,30.48
2022-08-07T06:30:35.224Z,31.72
2022-08-07T06:33:15.682Z,32.49
2022-08-07T06:36:06.900Z,32.54
2022-08-07T06:38:37.702Z,33.16
2022-08-07T06:41:13.045Z,33.86
2022-08-07T06:44:01.753Z,33.80
2022-08-07T06:46:35.498Z,34.42
2022-08-07T06:49:05.070Z,34.57
2022-08-07T06:51:49.493Z,34.78
2022-08-07T06:55:33.271Z,35.78
2022-08-07T06:57:10.492Z,36.70
2022-08-07T07:00:12.662Z,36.75
2022-08-07T07:02:53.419Z,37.81
2022-08-07T07:06:02.959Z,38.25
2022-08-07T07:08:18.898Z,38.93
2022-08-07T07:10:57.164Z,38.72
2022-08-07T07:13:55.366Z,37.33
2022-08-07T07:16:27.333Z,33.07
2022-08-07T07:19:11.512Z,29.70
2022-08-07T07:22:11.403Z,27.27
2022-08-07T07:24:56.936Z,27.54
2022-08-07T07:27:35.826Z,28.80
2022-08-07T07:30:37.986Z,29.91
2022-08-07T07:33:11.453Z,30.09
2022-08-07T07:35:51.916Z,30.05
2022-08-07T07:38:32.669Z,29.80
2022-08-07T07:41:08.897Z,31.10
2022-08-07T07:44:14.654Z,30.51
2022-08-07T07:46:38.065Z,30.53
2022-08-07T07:50:34.516Z,30.28
2022-08-07T07:52:10.180Z,29.74
2022-08-07T07:54:38.361Z,27.86
2022-08-07T07:57:09.378Z,26.00
2022-08-07T07:59:52.784Z,24.53
2022-08-07T08:02:35.342Z,22.89
2022-08-07T08:05:05.554Z,23.35
2022-08-07T08:08:00.029Z,23.62
2022-08-07T08:10:37.819Z,24.87
2022-08-07T08:13:10.582Z,25.54
2022-08-07T08:15:58.427Z,26.38
2022-08-07T08:18:28.456Z,26.68
2022-08-07T08:21:00.693Z,26.90
2022-08-07T08:23:52.101Z,27.62
2022-08-07T08:26:40.342Z,28.12
2022-08-07T08:29:09.045Z,29.00
2022-08-07T08:31:58.904Z,29.06
2022-08-07T08:34:39.229Z,29.19
2022-08-07T08:38:01.419Z,30.17
2022-08-07T08:39:59.198Z,30.84
2022-08-07T08:42:26.628Z,31.37
2022-08-07T08:45:16.963Z,31.25
2022-08-07T08:48:05.197Z,31.30
2022-08-07T08:50:40.186Z,31.38
2022-08-07T08:53:10.768Z,32.07
2022-08-07T08:55:54.730Z,32.60
2022-08-07T08:58:54.636Z,33.04
2022-08-07T09:02:01.664Z,31.92
2022-08-07T09:04:54.671Z,31.66
2022-08-07T09:07:46.157Z,32.03
2022-08-07T09:10:29.463Z,32.25
2022-08-07T09:13:14.757Z,32.45
2022-08-07T09:16:23.002Z,31.42
2022-08-07T09:18:58.399Z,31.98
2022-08-07T09:21:33.775Z,30.88
2022-08-07T09:24:58.949Z,31.37
2022-08-07T09:28:00.810Z,31.55
2022-08-07T09:30:54.286Z,31.12
2022-08-07T09:33:57.445Z,31.31
2022-08-07T09:36:37.079Z,30.59
2022-08-07T09:39:52.913Z,31.58
2022-08-07T09:42:33.243Z,30.91
2022-08-07T09:47:20.230Z,31.37
2022-08-07T09:48:14.692Z,30.98
2022-08-07T09:51:26.106Z,32.23
2022-08-07T09:54:02.370Z,32.16
2022-08-07T09:56:58.875Z,32.42
2022-08-07T09:59:44.588Z,32.79
2022-08-07T10:02:55.155Z,32.44
2022-08-07T10:06:00.619Z,32.78
2022-08-07T10:08:38.095Z,32.64
2022-08-07T10:12:02.036Z,32.87
2022-08-07T10:14:35.454Z,33.15
2022-08-07T10:17:33.801Z,33.53
2022-08-07T10:20:50.175Z,33.43
2022-08-07T10:24:06.070Z,34.17
2022-08-07T10:27:12.419Z,34.28
2022-08-07T10:30:12.404Z,34.38
2022-08-07T10:32:53.353Z,34.26
2022-08-07T10:35:55.896Z,34.16
2022-08-07T10:38:48.755Z,34.27
2022-08-07T10:41:46.968Z,33.95
2022-08-07T10:44:37.568Z,34.17
2022-08-07T10:47:18.733Z,33.92
2022-08-07T10:50:15.068Z,34.63
2022-08-07T10:53:05.239Z,34.32
2022-08-07T10:56:02.289Z,34.59
2022-08-07T10:58:59.388Z,34.71
2022-08-07T11:01:51.026Z,34.19
2022-08-07T11:04:52.674Z,34.88
2022-08-07T11:07:58.651Z,34.87
2022-08-07T11:10:32.088Z,34.35
2022-08-07T11:14:41.966Z,34.38
2022-08-07T11:16:30.618Z,34.80
2022-08-07T11:19:11.693Z,34.62
2022-08-07T11:21:45.226Z,34.62
2022-08-07T11:24:24.356Z,35.13
2022-08-07T11:27:02.076Z,34.82
2022-08-07T11:30:10.006Z,34.18
2022-08-07T11:33:02.751Z,33.89
2022-08-07T11:36:10.011Z,34.41
2022-08-07T11:39:01.849Z,34.25
2022-08-07T11:42:02.439Z,33.88
2022-08-07T11:44:36.967Z,33.99
2022-08-07T11:47:23.364Z,34.13
2022-08-07T11:50:57.866Z,35.83
2022-08-07T11:53:56.981Z,37.01
2022-08-07T11:56:55.315Z,37.29
2022-08-07T12:00:10.534Z,37.33
2022-08-07T12:02:52.111Z,37.53
2022-08-07T12:05:47.253Z,38.59
2022-08-07T12:08:34.388Z,38.78
2022-08-07T12:11:21.156Z,38.91
2022-08-07T12:14:04.439Z,38.96
2022-08-07T12:16:41.296Z,39.56
2022-08-07T12:19:22.120Z,40.08
2022-08-07T12:22:38.090Z,39.90
2022-08-07T12:26:05.495Z,39.95
2022-08-07T12:28:45.156Z,40.13
2022-08-07T12:31:52.779Z,39.92
2022-08-07T12:34:29.689Z,39.38
2022-08-07T12:36:59.777Z,39.21
2022-08-07T12:39:43.328Z,39.42
2022-08-07T12:42:16.013Z,40.24
2022-08-07T12:44:46.977Z,40.53
2022-08-07T12:47:37.696Z,40.92
2022-08-07T12:50:39.592Z,41.66
2022-08-07T12:53:22.703Z,42.46
2022-08-07T12:56:16.269Z,42.44
2022-08-07T12:58:53.002Z,42.76
2022-08-07T13:01:32.156Z,42.87
2022-08-07T13:04:49.227Z,43.21
2022-08-07T13:08:14.414Z,43.39
2022-08-07T13:11:01.110Z,42.78
2022-08-07T13:13:46.762Z,42.93
2022-08-07T13:16:39.806Z,42.46
2022-08-07T13:19:45.843Z,43.20
2022-08-07T13:22:33.511Z,43.21
2022-08-07T13:25:06.856Z,43.02
2022-08-07T13:28:10.649Z,43.71
2022-08-07T13:30:41.257Z,43.26
2022-08-07T13:34:32.032Z,43.56
2022-08-07T13:36:27.674Z,43.44
2022-08-07T13:39:05.142Z,44.08
2022-08-07T13:41:48.615Z,43.89
2022-08-07T13:44:26.460Z,43.96
2022-08-07T13:46:59.469Z,44.29
2022-08-07T13:50:33.800Z,44.14
2022-08-07T13:52:26.446Z,44.12
2022-08-07T13:55:19.185Z,44.04
2022-08-07T13:58:27.870Z,43.97
2022-08-07T14:01:08.894Z,43.95
2022-08-07T14:04:05.611Z,44.23
2022-08-07T14:06:34.972Z,44.72
2022-08-07T14:09:04.646Z,44.22
2022-08-07T14:11:53.196Z,44.35
2022-08-07T14:14:41.806Z,44.48
2022-08-07T14:18:12.612Z,44.81
2022-08-07T14:20:40.993Z,45.43
2022-08-07T14:24:00.241Z,45.18
2022-08-07T14:26:31.956Z,44.87
2022-08-07T14:29:05.995Z,45.08
2022-08-07T14:31:56.499Z,45.37
2022-08-07T14:34:30.111Z,45.92
2022-08-07T14:37:03.659Z,46.11
2022-08-07T14:40:15.886Z,46.17
2022-08-07T14:42:31.401Z,46.04
2022-08-07T14:45:21.381Z,46.38
2022-08-07T14:47:53.079Z,46.27
2022-08-07T14:50:28.201Z,46.33
2022-08-07T14:52:57.290Z,45.44
2022-08-07T14:58:28.190Z,45.22
2022-08-07T15:00:59.126Z,45.41
2022-08-07T15:03:51.641Z,46.09
2022-08-07T15:06:23.497Z,45.23
2022-08-07T15:08:54.561Z,45.43
2022-08-07T15:11:53.774Z,45.59
2022-08-07T15:14:25.383Z,45.25
2022-08-07T15:17:04.306Z,45.78
2022-08-07T15:25:25.712Z,46.15
2022-08-07T15:28:34.999Z,46.59
2022-08-07T15:31:05.640Z,46.86
2022-08-07T15:33:36.793Z,47.48
2022-08-07T15:36:07.967Z,46.98
2022-08-07T15:42:45.627Z,47.67
2022-08-07T15:44:23.796Z,46.96
2022-08-07T15:50:06.035Z,47.15
2022-08-07T15:52:38.206Z,47.46
2022-08-07T15:55:11.423Z,47.74
2022-08-07T15:57:48.831Z,47.67
2022-08-07T16:00:31.220Z,48.18
2022-08-07T16:03:05.242Z,47.67
2022-08-07T16:05:34.844Z,47.54
2022-08-07T16:08:31.178Z,47.59
2022-08-07T16:11:26.831Z,48.03
2022-08-07T16:14:19.172Z,48.25
2022-08-07T16:18:02.283Z,48.53
2022-08-07T16:20:38.708Z,48.70
2022-08-07T16:23:53.475Z,49.01
2022-08-07T16:26:30.709Z,49.12
2022-08-07T16:30:11.880Z,49.03
2022-08-07T16:32:32.988Z,49.15
2022-08-07T16:35:52.377Z,49.88
2022-08-07T16:39:00.591Z,50.31
2022-08-07T16:42:04.693Z,50.46
2022-08-07T16:46:47.064Z,51.11
2022-08-07T16:49:04.379Z,50.93
2022-08-07T16:52:51.052Z,51.02
2022-08-07T16:55:47.319Z,51.28
2022-08-07T16:59:10.639Z,51.75
2022-08-07T17:02:14.169Z,52.59
2022-08-07T17:06:02.414Z,52.49
2022-08-07T17:08:10.943Z,52.42
2022-08-07T17:10:54.644Z,52.64
2022-08-07T17:13:41.652Z,52.70
2022-08-07T17:16:37.952Z,53.05
2022-08-07T17:20:02.825Z,53.30
2022-08-07T17:22:30.051Z,52.99
2022-08-07T17:25:13.288Z,53.15
2022-08-07T17:27:58.039Z,53.56
2022-08-07T17:30:35.713Z,54.00
2022-08-07T17:34:10.229Z,54.18
2022-08-07T17:36:29.028Z,54.34
2022-08-07T17:39:57.868Z,54.24
2022-08-07T17:42:59.898Z,54.60
2022-08-07T17:45:35.161Z,54.80
2022-08-07T17:48:10.395Z,54.99
2022-08-07T17:51:21.677Z,55.14
2022-08-07T17:54:39.681Z,54.79
2022-08-07T17:57:59.188Z,54.86
2022-08-07T18:00:34.120Z,55.24
2022-08-07T18:03:21.130Z,55.19
2022-08-07T18:06:06.491Z,55.32
2022-08-07T18:09:01.824Z,55.62
2022-08-07T18:12:16.287Z,56.04
2022-08-07T18:14:31.809Z,55.81
2022-08-07T18:18:46.500Z,56.34
2022-08-07T18:21:09.542Z,56.39
2022-08-07T18:23:46.678Z,56.66
2022-08-07T18:27:17.270Z,57.00
2022-08-07T18:30:08.019Z,57.52
2022-08-07T18:33:12.199Z,57.21
2022-08-07T18:36:18.030Z,57.00
2022-08-07T18:40:06.631Z,57.51
2022-08-07T18:42:13.092Z,57.89
2022-08-07T18:45:43.112Z,58.12
2022-08-07T18:50:05.819Z,58.05
2022-08-07T18:52:37.506Z,58.29
2022-08-07T18:54:49.594Z,58.50
2022-08-07T18:57:37.083Z,59.04
2022-08-07T19:00:33.420Z,58.80
2022-08-07T19:03:15.993Z,59.10
2022-08-07T19:06:08.343Z,58.84
2022-08-07T19:11:15.469Z,59.29
2022-08-07T19:14:08.037Z,59.31
2022-08-07T19:17:07.747Z,59.53
2022-08-07T19:19:48.962Z,59.27
2022-08-07T19:22:31.181Z,59.61
2022-08-07T19:25:06.567Z,59.85
2022-08-07T19:28:58.489Z,59.99
2022-08-07T19:31:00.297Z,59.85
2022-08-07T19:33:35.044Z,59.56
2022-08-07T19:38:34.237Z,59.71
2022-08-07T19:41:02.811Z,59.63
2022-08-07T19:43:48.737Z,59.77
2022-08-07T19:46:26.698Z,59.77
2022-08-07T19:49:03.481Z,60.08
2022-08-07T19:51:52.091Z,60.18
2022-08-07T19:54:35.150Z,60.29
2022-08-07T19:58:04.472Z,60.29
2022-08-07T20:00:10.402Z,60.44
2022-08-07T20:02:51.844Z,60.81
2022-08-07T20:05:59.666Z,60.46
2022-08-07T20:08:32.669Z,60.95
2022-08-07T20:11:03.948Z,60.67
2022-08-07T20:13:53.978Z,60.57
2022-08-07T20:16:34.967Z,60.45
2022-08-07T20:19:09.929Z,61.09
2022-08-07T20:21:47.602Z,60.92
2022-08-07T20:24:22.132Z,61.41
2022-08-07T20:26:54.884Z,61.62
2022-08-07T20:29:47.019Z,62.12
2022-08-07T20:32:27.132Z,62.13
2022-08-07T20:35:11.380Z,62.38
2022-08-07T20:37:59.195Z,61.69
2022-08-07T20:40:34.646Z,62.44
2022-08-07T20:43:14.852Z,63.72
2022-08-07T20:46:25.666Z,64.53
2022-08-07T20:48:58.012Z,65.04
2022-08-07T20:51:30.832Z,65.71
2022-08-07T20:54:12.237Z,65.66
2022-08-07T20:56:48.203Z,66.29
2022-08-07T21:00:05.438Z,66.76
2022-08-07T21:02:35.193Z,67.45
2022-08-07T21:05:16.261Z,67.39
2022-08-07T21:07:49.586Z,67.48
2022-08-07T21:10:39.292Z,67.86
2022-08-07T21:13:12.627Z,67.73
2022-08-07T21:16:00.005Z,68.44
2022-08-07T21:18:34.206Z,68.78
2022-08-07T21:21:04.443Z,68.13
2022-08-07T21:23:50.237Z,67.79
2022-08-07T21:26:24.772Z,68.98
2022-08-07T21:29:03.265Z,69.68
2022-08-07T21:32:46.823Z,69.61
2022-08-07T21:35:06.864Z,69.71
2022-08-07T21:38:03.605Z,69.39
2022-08-07T21:40:41.733Z,70.08
2022-08-07T21:43:14.211Z,70.25
2022-08-07T21:46:08.153Z,70.09
2022-08-07T21:48:57.541Z,69.55
2022-08-07T21:51:51.233Z,70.11
2022-08-07T21:54:26.444Z,69.33
2022-08-07T21:57:30.831Z,70.35
2022-08-07T22:00:22.025Z,70.63
2022-08-07T22:03:31.414Z,71.02
2022-08-07T22:06:07.256Z,71.45
2022-08-07T22:08:59.991Z,71.73
2022-08-07T22:11:30.600Z,71.90
2022-08-07T22:14:23.830Z,71.71
2022-08-07T22:17:05.906Z,71.71
2022-08-07T22:20:04.090Z,71.59
2022-08-07T22:22:44.755Z,71.94
2022-08-07T22:25:45.589Z,71.96
2022-08-07T22:28:31.130Z,72.22
2022-08-07T22:31:00.705Z,71.16
2022-08-07T22:33:56.728Z,72.01
2022-08-07T22:37:02.236Z,72.12
2022-08-07T22:39:53.518Z,72.12
2022-08-07T22:42:29.574Z,72.16
2022-08-07T22:45:02.291Z,72.82
2022-08-07T22:47:49.405Z,73.11
2022-08-07T22:50:43.765Z,73.02
2022-08-07T22:54:07.500Z,72.10
2022-08-07T22:57:16.995Z,71.73
2022-08-07T23:00:06.746Z,72.29
2022-08-07T23:02:56.209Z,72.88
2022-08-07T23:06:09.606Z,73.36
2022-08-07T23:08:58.456Z,73.64
2022-08-07T23:11:59.006Z,73.44
2022-08-07T23:14:48.545Z,73.34
2022-08-07T23:17:41.801Z,73.22
2022-08-07T23:20:53.248Z,73.24
2022-08-07T23:24:05.534Z,73.15
2022-08-07T23:26:50.383Z,73.29
2022-08-07T23:29:43.610Z,73.82
2022-08-07T23:34:34.287Z,73.04
2022-08-07T23:36:05.573Z,72.88
2022-08-07T23:38:57.052Z,73.04
2022-08-07T23:42:05.152Z,73.76
2022-08-07T23:44:41.858Z,73.99
2022-08-07T23:47:23.053Z,73.30
2022-08-07T23:50:16.358Z,73.67
2022-08-07T23:53:06.585Z,73.41
2022-08-07T23:55:53.349Z,73.83
2022-08-07T23:58:51.934Z,73.58
